地図

経路データ

SID SEASON NUMBER BASIN SUBBASIN NAME ISO_TIME NATURE LAT LON WMO_WIND WMO_PRES WMO_AGENCY TRACK_TYPE DIST2LAND LANDFALL IFLAG USA_AGENCY USA_ATCF_ID USA_LAT USA_LON USA_RECORD USA_STATUS USA_WIND USA_PRES USA_SSHS USA_R34_NE USA_R34_SE USA_R34_SW USA_R34_NW USA_R50_NE USA_R50_SE USA_R50_SW USA_R50_NW USA_R64_NE USA_R64_SE USA_R64_SW USA_R64_NW USA_POCI USA_ROCI USA_RMW USA_EYE TOKYO_LAT TOKYO_LON TOKYO_GRADE TOKYO_WIND TOKYO_PRES TOKYO_R50_DIR TOKYO_R50_LONG TOKYO_R50_SHORT TOKYO_R30_DIR TOKYO_R30_LONG TOKYO_R30_SHORT TOKYO_LAND CMA_LAT CMA_LON CMA_CAT CMA_WIND CMA_PRES HKO_LAT HKO_LON HKO_CAT HKO_WIND HKO_PRES NEWDELHI_LAT NEWDELHI_LON NEWDELHI_GRADE NEWDELHI_WIND NEWDELHI_PRES NEWDELHI_CI NEWDELHI_DP NEWDELHI_POCI REUNION_LAT REUNION_LON REUNION_TYPE REUNION_WIND REUNION_PRES REUNION_TNUM REUNION_CI REUNION_RMW REUNION_R34_NE REUNION_R34_SE REUNION_R34_SW REUNION_R34_NW REUNION_R50_NE REUNION_R50_SE REUNION_R50_SW REUNION_R50_NW REUNION_R64_NE REUNION_R64_SE REUNION_R64_SW REUNION_R64_NW BOM_LAT BOM_LON BOM_TYPE BOM_WIND BOM_PRES BOM_TNUM BOM_CI BOM_RMW BOM_R34_NE BOM_R34_SE BOM_R34_SW BOM_R34_NW BOM_R50_NE BOM_R50_SE BOM_R50_SW BOM_R50_NW BOM_R64_NE BOM_R64_SE BOM_R64_SW BOM_R64_NW BOM_ROCI BOM_POCI BOM_EYE BOM_POS_METHOD BOM_PRES_METHOD NADI_LAT NADI_LON NADI_CAT NADI_WIND NADI_PRES WELLINGTON_LAT WELLINGTON_LON WELLINGTON_WIND WELLINGTON_PRES DS824_LAT DS824_LON DS824_STAGE DS824_WIND DS824_PRES TD9636_LAT TD9636_LON TD9636_STAGE TD9636_WIND TD9636_PRES TD9635_LAT TD9635_LON TD9635_WIND TD9635_PRES TD9635_ROCI NEUMANN_LAT NEUMANN_LON NEUMANN_CLASS NEUMANN_WIND NEUMANN_PRES MLC_LAT MLC_LON MLC_CLASS MLC_WIND MLC_PRES USA_GUST BOM_GUST BOM_GUST_PER REUNION_GUST REUNION_GUST_PER USA_SEAHGT USA_SEARAD_NE USA_SEARAD_SE USA_SEARAD_SW USA_SEARAD_NW STORM_SPEED STORM_DIR
1911297N14135 1911 67 WP MM NOT_NAMED 1911-10-24 09:00:00 NR 13.6000 134.700 main 1009 911 __________O___ -1 13.6000 134.700 2 18 266
1911297N14135 1911 67 WP MM NOT_NAMED 1911-10-24 12:00:00 NR 13.5313 133.765 main 911 815 __________P___ -1 13.5313 133.765 2 18 266
1911297N14135 1911 67 WP MM NOT_NAMED 1911-10-24 15:00:00 NR 13.4686 132.854 main 815 717 __________P___ -1 13.4686 132.854 2 17 266
1911297N14135 1911 67 WP MM NOT_NAMED 1911-10-24 18:00:00 NR 13.4214 131.991 main 717 632 __________P___ -1 13.4214 131.991 2 16 268
1911297N14135 1911 67 WP MM NOT_NAMED 1911-10-24 21:00:00 NR 13.4000 131.200 main 632 558 __________O___ -1 13.4000 131.200 2 15 270
1911297N14135 1911 67 WP MM NOT_NAMED 1911-10-25 00:00:00 NR 13.4118 130.495 main 558 495 __________P___ -1 13.4118 130.495 2 13 272
1911297N14135 1911 67 WP MM NOT_NAMED 1911-10-25 03:00:00 NR 13.4533 129.860 main 498 437 __________P___ -1 13.4533 129.860 2 12 275
1911297N14135 1911 67 WP MM NOT_NAMED 1911-10-25 06:00:00 NR 13.5183 129.270 main 437 380 __________P___ -1 13.5183 129.270 2 11 277
1911297N14135 1911 67 WP MM NOT_NAMED 1911-10-25 09:00:00 NR 13.6000 128.700 main 380 328 __________O___ -1 13.6000 128.700 2 12 277
1911297N14135 1911 67 WP MM NOT_NAMED 1911-10-25 12:00:00 NR 13.6649 128.098 main 328 274 __________P___ -1 13.6649 128.098 2 12 277
1911297N14135 1911 67 WP MM NOT_NAMED 1911-10-25 15:00:00 NR 13.7471 127.512 main 274 241 __________P___ -1 13.7471 127.512 2 11 280
1911297N14135 1911 67 WP MM NOT_NAMED 1911-10-25 18:00:00 NR 13.8556 126.945 main 241 212 __________P___ -1 13.8556 126.945 2 11 283
1911297N14135 1911 67 WP MM NOT_NAMED 1911-10-25 21:00:00 NR 14.0000 126.400 main 212 165 __________O___ -1 14.0000 126.400 2 11 287
1911297N14135 1911 67 WP MM NOT_NAMED 1911-10-26 00:00:00 NR 14.1805 125.870 main 165 121 __________P___ -1 14.1805 125.870 2 11 292
1911297N14135 1911 67 WP MM NOT_NAMED 1911-10-26 03:00:00 NR 14.3970 125.362 main 121 93 __________P___ -1 14.3970 125.362 2 11 295
1911297N14135 1911 67 WP MM NOT_NAMED 1911-10-26 06:00:00 NR 14.6400 124.873 main 93 89 __________P___ -1 14.6400 124.873 2 11 298
1911297N14135 1911 67 WP MM NOT_NAMED 1911-10-26 09:00:00 NR 14.9000 124.400 main 101 100 __________O___ -1 14.9000 124.400 2 11 300
1911297N14135 1911 67 WP MM NOT_NAMED 1911-10-26 12:00:00 NR 15.1684 123.927 main 136 136 __________P___ -1 15.1684 123.927 2 11 301
1911297N14135 1911 67 WP MM NOT_NAMED 1911-10-26 15:00:00 NR 15.4496 123.470 main 149 111 __________P___ -1 15.4496 123.470 2 10 303
1911297N14135 1911 67 WP MM NOT_NAMED 1911-10-26 18:00:00 NR 15.7310 123.027 main 102 48 __________P___ -1 15.7310 123.027 2 10 303
1911297N14135 1911 67 WP MM NOT_NAMED 1911-10-26 21:00:00 NR 16.0000 122.600 main 48 0 __________O___ -1 16.0000 122.600 2 10 301
1911297N14135 1911 67 WP MM NOT_NAMED 1911-10-27 00:00:00 NR 16.2352 122.161 main 0 0 __________P___ -1 16.2352 122.161 2 9 299
1911297N14135 1911 67 WP MM NOT_NAMED 1911-10-27 03:00:00 NR 16.4574 121.740 main 0 0 __________P___ -1 16.4574 121.740 2 9 299
1911297N14135 1911 67 WP MM NOT_NAMED 1911-10-27 06:00:00 NR 16.6759 121.349 main 0 0 __________P___ -1 16.6759 121.349 2 8 302
1911297N14135 1911 67 WP MM NOT_NAMED 1911-10-27 09:00:00 NR 16.9000 121.000 main 0 0 __________O___ -1 16.9000 121.000 2 8 306
1911297N14135 1911 67 WP MM NOT_NAMED 1911-10-27 12:00:00 NR 17.1467 120.674 main 0 0 __________P___ -1 17.1467 120.674 2 8 311
1911297N14135 1911 67 WP MM NOT_NAMED 1911-10-27 15:00:00 NR 17.3998 120.395 main 10 10 __________P___ -1 17.3998 120.395 2 7 316
1911297N14135 1911 67 WP MM NOT_NAMED 1911-10-27 18:00:00 NR 17.6530 120.168 main 15 15 __________P___ -1 17.6530 120.168 2 6 323
1911297N14135 1911 67 WP MM NOT_NAMED 1911-10-27 21:00:00 NR 17.9000 120.000 main 46 46 __________O___ -1 17.9000 120.000 2 6 332
1911297N14135 1911 67 WP MM NOT_NAMED 1911-10-28 00:00:00 NR 18.1441 119.900 main 63 63 __________P___ -1 18.1441 119.900 2 5 344
1911297N14135 1911 67 WP MM NOT_NAMED 1911-10-28 03:00:00 NR 18.3797 119.854 main 71 71 __________P___ -1 18.3797 119.854 2 5 351
1911297N14135 1911 67 WP MM NOT_NAMED 1911-10-28 06:00:00 NR 18.6005 119.831 main 87 87 __________P___ -1 18.6005 119.831 2 4 352
1911297N14135 1911 67 WP MM NOT_NAMED 1911-10-28 09:00:00 NR 18.8000 119.800 main 95 95 __________O___ -1 18.8000 119.800 2 4 344
1911297N14135 1911 67 WP MM NOT_NAMED 1911-10-28 12:00:00 NR 18.9512 119.726 main 116 116 __________P___ -1 18.9512 119.726 2 3 332
1911297N14135 1911 67 WP MM NOT_NAMED 1911-10-28 15:00:00 NR 19.0849 119.637 main 131 131 __________P___ -1 19.0849 119.637 2 3 326
1911297N14135 1911 67 WP MM NOT_NAMED 1911-10-28 18:00:00 NR 19.2262 119.529 main 146 146 __________P___ -1 19.2262 119.529 2 4 325
1911297N14135 1911 67 WP MM NOT_NAMED 1911-10-28 21:00:00 NR 19.4000 119.400 main 168 168 __________O___ -1 19.4000 119.400 2 5 328
1911297N14135 1911 67 WP MM NOT_NAMED 1911-10-29 00:00:00 NR 19.6553 119.247 main 206 206 __________P___ -1 19.6553 119.247 2 6 330
1911297N14135 1911 67 WP MM NOT_NAMED 1911-10-29 03:00:00 NR 19.9425 119.073 main 230 230 __________P___ -1 19.9425 119.073 2 7 330
1911297N14135 1911 67 WP MM NOT_NAMED 1911-10-29 06:00:00 NR 20.2335 118.887 main 266 258 __________P___ -1 20.2335 118.887 2 7 328
1911297N14135 1911 67 WP MM NOT_NAMED 1911-10-29 09:00:00 NR 20.5000 118.700 main 259 253 __________O___ -1 20.5000 118.700 2 6 323
1911297N14135 1911 67 WP MM NOT_NAMED 1911-10-29 12:00:00 NR 20.7160 118.505 main 264 258 __________P___ -1 20.7160 118.505 2 5 318
1911297N14135 1911 67 WP MM NOT_NAMED 1911-10-29 15:00:00 NR 20.9026 118.312 main 272 260 __________P___ -1 20.9026 118.312 2 5 315
1911297N14135 1911 67 WP MM NOT_NAMED 1911-10-29 18:00:00 NR 21.0629 118.139 main 260 244 __________P___ -1 21.0629 118.139 2 4 316
1911297N14135 1911 67 WP MM NOT_NAMED 1911-10-29 21:00:00 NR 21.2000 118.000 main 244 229 __________O___ -1 21.2000 118.000 2 3 322
1911297N14135 1911 67 WP MM NOT_NAMED 1911-10-30 00:00:00 NR 21.3174 117.922 main 229 221 __________P___ -1 21.3174 117.922 2 2 333
1911297N14135 1911 67 WP MM NOT_NAMED 1911-10-30 03:00:00 NR 21.4148 117.877 main 221 205 __________P___ -1 21.4148 117.877 2 2 341
1911297N14135 1911 67 WP MM NOT_NAMED 1911-10-30 06:00:00 NR 21.5049 117.844 main 205 197 __________P___ -1 21.5049 117.844 2 2 339
1911297N14135 1911 67 WP MM NOT_NAMED 1911-10-30 09:00:00 NR 21.6000 117.800 main 197 182 __________O___ -1 21.6000 117.800 2 2 324
1911297N14135 1911 67 WP MM NOT_NAMED 1911-10-30 12:00:00 NR 21.6609 117.722 main 182 175 __________P___ -1 21.6609 117.722 2 2 311
1911297N14135 1911 67 WP MM NOT_NAMED 1911-10-30 15:00:00 NR 21.7375 117.629 main 175 151 __________P___ -1 21.7375 117.629 2 3 318
1911297N14135 1911 67 WP MM NOT_NAMED 1911-10-30 18:00:00 NR 21.8703 117.522 main 151 128 __________P___ -1 21.8703 117.522 2 4 330
1911297N14135 1911 67 WP MM NOT_NAMED 1911-10-30 21:00:00 NR 22.1000 117.400 main 128 99 __________O___ -1 22.1000 117.400 2 7 338
1911297N14135 1911 67 WP MM NOT_NAMED 1911-10-31 00:00:00 NR 22.4704 117.261 main 93 54 __________P___ -1 22.4704 117.261 2 9 342
1911297N14135 1911 67 WP MM NOT_NAMED 1911-10-31 03:00:00 NR 22.9376 117.108 main 54 10 __________P___ -1 22.9376 117.108 2 10 344
1911297N14135 1911 67 WP MM NOT_NAMED 1911-10-31 06:00:00 NR 23.4611 116.951 main 10 0 __________P___ -1 23.4611 116.951 2 11 345
1911297N14135 1911 67 WP MM NOT_NAMED 1911-10-31 09:00:00 NR 24.0000 116.800 main 0 0 __________O___ -1 24.0000 116.800 2 10 341
1911297N14135 1911 67 WP MM NOT_NAMED 1911-10-31 12:00:00 NR 24.4359 116.585 main 0 0 __________P___ -1 24.4359 116.585 2 10 337
1911297N14135 1911 67 WP MM NOT_NAMED 1911-10-31 15:00:00 NR 24.8872 116.390 main 0 0 __________P___ -1 24.8872 116.390 2 10 344
1911297N14135 1911 67 WP MM NOT_NAMED 1911-10-31 18:00:00 NR 25.3949 116.274 main 0 0 __________P___ -1 25.3949 116.274 2 11 356
1911297N14135 1911 67 WP MM NOT_NAMED 1911-10-31 21:00:00 NR 26.0000 116.300 main 0 0 __________O___ -1 26.0000 116.300 2 14 9
1911297N14135 1911 67 WP MM NOT_NAMED 1911-11-01 00:00:00 NR 26.7981 116.517 main 0 0 __________P___ -1 26.7981 116.517 2 18 17
1911297N14135 1911 67 WP MM NOT_NAMED 1911-11-01 03:00:00 NR 27.6851 116.885 main 0 0 __________P___ -1 27.6851 116.885 2 19 23
1911297N14135 1911 67 WP MM NOT_NAMED 1911-11-01 06:00:00 NR 28.5794 117.361 main 0 0 __________P___ -1 28.5794 117.361 2 19 27
1911297N14135 1911 67 WP MM NOT_NAMED 1911-11-01 09:00:00 NR 29.4000 117.900 main 0 0 __________O___ -1 29.4000 117.900 2 17 31
1911297N14135 1911 67 WP MM NOT_NAMED 1911-11-01 12:00:00 NR 30.0427 118.380 main 0 0 __________P___ -1 30.0427 118.380 2 15 36
1911297N14135 1911 67 WP MM NOT_NAMED 1911-11-01 15:00:00 NR 30.6022 118.913 main 0 0 __________P___ -1 30.6022 118.913 2 15 42
1911297N14135 1911 67 WP MM NOT_NAMED 1911-11-01 18:00:00 NR 31.1107 119.515 main 0 0 __________P___ -1 31.1107 119.515 2 15 48
1911297N14135 1911 67 WP MM NOT_NAMED 1911-11-01 21:00:00 NR 31.6000 120.200 main 0 0 __________O___ -1 31.6000 120.200 2 14 51
1911297N14135 1911 67 WP MM NOT_NAMED 1911-11-02 00:00:00 NR 31.9706 120.749 main 0 0 __________P___ -1 31.9706 120.749 2 13 54
1911297N14135 1911 67 WP MM NOT_NAMED 1911-11-02 03:00:00 NR 32.3513 121.412 main 0 0 __________P___ -1 32.3513 121.412 2 16 57
1911297N14135 1911 67 WP MM NOT_NAMED 1911-11-02 06:00:00 NR 32.8576 122.341 main 100 100 __________P___ -1 32.8576 122.341 2 23 57
1911297N14135 1911 67 WP MM NOT_NAMED 1911-11-02 09:00:00 NR 33.6000 123.700 main 233 73 __________O___ -1 33.6000 123.700 2 33 57
1911297N14135 1911 67 WP MM NOT_NAMED 1911-11-02 12:00:00 NR 34.6469 125.624 main 63 0 __________P___ -1 34.6469 125.624 2 43 57
1911297N14135 1911 67 WP MM NOT_NAMED 1911-11-02 15:00:00 NR 35.9213 128.063 main 0 0 __________P___ -1 35.9213 128.063 2 50 58
1911297N14135 1911 67 WP MM NOT_NAMED 1911-11-02 18:00:00 NR 37.3091 130.901 main 134 134 __________P___ -1 37.3091 130.901 2 55 60
1911297N14135 1911 67 WP MM NOT_NAMED 1911-11-02 21:00:00 NR 38.7000 134.000 main 284 __________O___ -1 38.7000 134.000 2 56 60

デジタル台風データ・検索

IBTrACS Databaseについて

本データベースは、米国NOAAが公開する1842年以降の世界の熱帯低気圧のベストトラックデータアーカイブInternational Best Track Archive for Climate Stewardship (IBTrACS)を、ウェブで閲覧しやすい形式に変換したものです。

最終更新日:2021-11-26